Longville, Louisiana
Current Conditions -  °F | °C
As of 8:15 AM on Monday 22 Dec 2014 (Local Time) from KDRI Reporting Station
Moderate Fog Moderate Fog  
Wind Chill: 54°   Ceiling: 200
Heat Index: 54°   Visibility: 0.25mi
Dew Point: 52°   Wind: 6mph
Humidity: 95%   Direction: 140°SE
Pressure: 29.8"   Gusts: NA
Location:  30.61°N, 93.23°W
Report Text: KDRI 221415Z AUTO 14005KT 1/4SM FG OVC002 12/11 A2980 RMK AO2 T01200113
Loading
Personal Weather Stations






























Interactive Weather Map New forecast layout! Learn more

10-Day Weather Forecast

Advertisements
Track Severe Weather on mobile